Time;durP1;ratioP1;P1;durP2;ratioP2;P2;SDS_P1;SDS_P2;PMS_P1;PMS_P2;Temp;Humidity;BMP_temperature;BMP_pressure;BME280_temperature;BME280_humidity;BME280_pressure;Samples;Min_cycle;Max_cycle;Signal;HPM_P1;HPM_P2
2021/10/22 00:00:47;;;;;;;9.17;2.10;;;;;;;6.21;77.25;100279.91;5091302;28;20193;-81
2021/10/22 00:03:14;;;;;;;7.60;2.30;;;;;;;6.19;77.50;100294.97;5080291;28;20844;-82
2021/10/22 00:05:41;;;;;;;7.07;2.57;;;;;;;6.19;77.50;100300.28;5089489;28;20220;-83
2021/10/22 00:08:07;;;;;;;10.27;2.30;;;;;;;6.20;77.70;100303.78;5083311;28;20227;-82
2021/10/22 00:10:34;;;;;;;12.97;3.17;;;;;;;6.18;77.75;100309.13;5083843;28;20534;-82
2021/10/22 00:13:00;;;;;;;12.20;3.27;;;;;;;6.16;77.69;100310.13;5079176;28;20205;-82
2021/10/22 00:15:29;;;;;;;10.87;2.40;;;;;;;6.17;77.63;100315.34;5088108;28;20224;-82
2021/10/22 00:17:58;;;;;;;11.60;2.80;;;;;;;6.16;77.93;100315.44;5084128;28;20561;-84
2021/10/22 00:20:25;;;;;;;11.57;2.60;;;;;;;6.13;77.98;100316.44;5093886;28;20200;-81
2021/10/22 00:22:51;;;;;;;9.07;2.50;;;;;;;6.14;78.23;100320.78;5081636;28;20212;-82
2021/10/22 00:25:19;;;;;;;6.40;2.37;;;;;;;6.12;78.07;100327.94;5106409;22;20259;-75
2021/10/22 00:27:46;;;;;;;11.10;3.03;;;;;;;6.12;78.07;100325.28;5069418;28;20767;-76
2021/10/22 00:30:12;;;;;;;8.80;2.43;;;;;;;6.11;78.41;100320.94;5062040;28;20199;-76
2021/10/22 00:32:39;;;;;;;10.47;2.27;;;;;;;6.12;78.32;100327.94;5078087;28;20201;-75
2021/10/22 00:35:08;;;;;;;7.03;2.83;;;;;;;6.12;78.68;100321.78;5074720;28;20236;-75
2021/10/22 00:37:35;;;;;;;13.10;2.40;;;;;;;6.11;78.39;100326.22;5063108;28;20233;-76
2021/10/22 00:40:01;;;;;;;8.33;2.23;;;;;;;6.12;78.54;100322.66;5095655;22;20239;-72
2021/10/22 00:42:28;;;;;;;5.87;1.60;;;;;;;6.13;78.58;100336.72;5076397;28;20205;-72
2021/10/22 00:44:54;;;;;;;7.23;1.87;;;;;;;6.11;78.51;100335.94;5072419;28;20667;-72
2021/10/22 00:47:21;;;;;;;9.23;2.40;;;;;;;6.11;79.01;100336.81;5071384;28;20249;-72
2021/10/22 00:49:48;;;;;;;6.63;2.10;;;;;;;6.11;78.82;100334.16;5067971;28;20239;-72
2021/10/22 00:52:21;;;;;;;12.17;2.67;;;;;;;6.12;78.79;100342.94;5051527;28;20232;-72
2021/10/22 00:54:48;;;;;;;11.20;2.80;;;;;;;6.13;78.70;100339.38;5052876;28;20224;-71
2021/10/22 00:57:15;;;;;;;7.53;2.30;;;;;;;6.11;78.88;100334.16;5051758;28;20210;-72
2021/10/22 00:59:42;;;;;;;8.47;2.70;;;;;;;6.12;78.80;100345.59;5050776;28;20717;-72
2021/10/22 01:02:10;;;;;;;8.23;2.20;;;;;;;6.11;78.70;100347.38;5051548;28;20725;-71
2021/10/22 01:04:38;;;;;;;8.63;2.40;;;;;;;6.10;78.82;100348.31;5054569;28;20209;-72
2021/10/22 01:07:06;;;;;;;7.53;2.63;;;;;;;6.11;78.94;100347.38;5055718;28;20205;-72
2021/10/22 01:09:34;;;;;;;10.53;2.43;;;;;;;6.09;79.46;100343.94;5056784;28;20229;-72
2021/10/22 01:12:01;;;;;;;8.37;2.07;;;;;;;6.08;79.20;100341.41;5050714;28;20212;-72
2021/10/22 01:14:29;;;;;;;13.53;2.60;;;;;;;6.08;79.31;100342.28;5051495;28;20225;-72
2021/10/22 01:16:56;;;;;;;14.87;2.43;;;;;;;6.08;79.24;100325.56;5052408;28;20218;-71
2021/10/22 01:19:22;;;;;;;9.03;2.13;;;;;;;6.10;79.08;100336.88;5059331;28;20604;-70
2021/10/22 01:21:51;;;;;;;6.70;1.60;;;;;;;6.07;79.68;100337.91;5055822;28;20201;-72
2021/10/22 01:24:19;;;;;;;5.30;1.27;;;;;;;6.09;79.38;100332.56;5062462;28;20287;-72
2021/10/22 01:26:46;;;;;;;12.03;2.10;;;;;;;6.06;79.49;100332.69;5050671;28;20247;-72
2021/10/22 01:29:12;;;;;;;4.97;2.00;;;;;;;6.07;79.51;100337.91;5066554;28;20274;-72
2021/10/22 01:31:39;;;;;;;4.73;1.63;;;;;;;6.05;79.54;100333.63;5067977;28;20681;-72
2021/10/22 01:34:06;;;;;;;10.23;1.80;;;;;;;6.08;79.46;100341.41;5052141;28;20705;-71
2021/10/22 01:36:33;;;;;;;18.17;2.03;;;;;;;6.08;79.25;100350.19;5067774;28;20211;-72
2021/10/22 01:39:01;;;;;;;6.77;1.40;;;;;;;6.10;79.45;100347.44;5052515;28;20272;-72
2021/10/22 01:41:28;;;;;;;5.73;1.60;;;;;;;6.08;79.11;100352.84;5050607;28;20216;-72
2021/10/22 01:44:00;;;;;;;7.83;1.77;;;;;;;6.06;79.36;100349.41;5050853;28;20410;-72
2021/10/22 01:46:26;;;;;;;4.13;1.97;;;;;;;6.08;79.31;100352.84;5050861;28;20274;-72
2021/10/22 01:48:53;;;;;;;12.70;2.43;;;;;;;6.10;79.28;100344.81;5054915;28;20229;-72
2021/10/22 01:51:20;;;;;;;11.30;2.60;;;;;;;6.08;79.38;100342.28;5051412;28;20201;-73
2021/10/22 01:53:46;;;;;;;8.77;2.70;;;;;;;6.09;79.28;100343.13;5056304;28;20215;-71
2021/10/22 01:56:14;;;;;;;7.97;1.93;;;;;;;6.08;79.27;100339.63;5050514;28;20300;-72
2021/10/22 01:58:41;;;;;;;8.73;1.83;;;;;;;6.07;79.08;100339.69;5055668;28;20231;-72
2021/10/22 02:01:07;;;;;;;6.33;1.60;;;;;;;6.07;78.97;100337.06;5053503;28;20205;-72
2021/10/22 02:03:34;;;;;;;6.97;2.43;;;;;;;6.06;79.40;100332.69;5050523;28;20216;-72
2021/10/22 02:06:01;;;;;;;7.20;2.30;;;;;;;6.05;79.26;100333.63;5063057;28;20586;-73
2021/10/22 02:08:28;;;;;;;8.93;2.47;;;;;;;6.04;79.37;100334.56;5063768;28;20267;-72
2021/10/22 02:10:54;;;;;;;9.90;2.73;;;;;;;6.04;79.26;100337.19;5051228;28;20876;-72
2021/10/22 02:13:22;;;;;;;10.20;3.13;;;;;;;6.01;79.71;100335.56;5056644;28;20210;-72
2021/10/22 02:15:49;;;;;;;7.53;2.87;;;;;;;6.02;79.60;100333.78;5052703;28;20229;-72
2021/10/22 02:18:15;;;;;;;12.57;2.80;;;;;;;6.02;79.49;100333.78;5061251;28;20221;-71
2021/10/22 02:20:42;;;;;;;11.93;2.83;;;;;;;6.04;79.50;100319.56;5051596;28;20206;-72
2021/10/22 02:23:08;;;;;;;10.30;3.17;;;;;;;6.01;79.57;100335.56;5060864;28;20222;-72
2021/10/22 02:25:35;;;;;;;7.57;3.10;;;;;;;6.01;79.39;100330.28;5051597;28;20214;-72
2021/10/22 02:28:02;;;;;;;12.60;3.50;;;;;;;6.00;79.54;100335.63;5050038;28;20209;-72
2021/10/22 02:30:30;;;;;;;11.47;3.20;;;;;;;5.99;79.33;100324.22;5053362;28;20222;-72
2021/10/22 02:32:57;;;;;;;10.43;3.67;;;;;;;6.01;79.38;100329.41;5054979;28;20275;-72
2021/10/22 02:35:23;;;;;;;15.53;4.07;;;;;;;6.01;79.36;100314.41;5054034;28;20230;-72
2021/10/22 02:37:50;;;;;;;12.93;3.90;;;;;;;6.02;79.65;100302.91;5055590;28;20682;-72
2021/10/22 02:40:17;;;;;;;8.87;3.20;;;;;;;6.01;79.41;100303.00;5056514;28;20240;-73
2021/10/22 02:42:44;;;;;;;9.67;3.37;;;;;;;6.01;79.48;100300.34;5066652;28;20205;-71
2021/10/22 02:45:11;;;;;;;15.93;4.00;;;;;;;6.00;79.64;100291.56;5071425;28;20201;-72
2021/10/22 02:47:39;;;;;;;10.53;3.33;;;;;;;6.02;79.12;100302.06;5053631;28;20213;-70
2021/10/22 02:50:06;;;;;;;14.63;3.70;;;;;;;6.02;79.05;100300.28;5053991;28;20580;-72
2021/10/22 02:52:33;;;;;;;11.30;4.10;;;;;;;6.01;79.74;100303.00;5054910;28;20201;-72
2021/10/22 02:54:59;;;;;;;13.93;4.17;;;;;;;6.00;79.48;100296.00;5060931;28;20217;-70
2021/10/22 02:57:26;;;;;;;14.87;4.77;;;;;;;6.00;79.74;100298.63;5056113;28;20220;-73
2021/10/22 02:59:52;;;;;;;8.50;3.90;;;;;;;6.03;79.47;100303.78;5060319;28;20233;-72
2021/10/22 03:02:19;;;;;;;11.20;4.10;;;;;;;6.03;79.45;100309.06;5059858;28;20205;-72
2021/10/22 03:04:47;;;;;;;8.67;3.23;;;;;;;6.03;79.28;100301.97;5055206;28;20593;-71
2021/10/22 03:07:13;;;;;;;12.83;3.83;;;;;;;6.04;79.06;100298.41;5058320;28;20209;-72
2021/10/22 03:09:40;;;;;;;8.10;3.23;;;;;;;6.02;79.22;100300.28;5053519;28;20689;-70
2021/10/22 03:12:07;;;;;;;8.70;3.40;;;;;;;6.02;79.36;100300.28;5053315;28;20210;-70
2021/10/22 03:14:34;;;;;;;13.70;4.13;;;;;;;6.03;79.40;100299.34;5058274;28;20229;-72
2021/10/22 03:17:00;;;;;;;8.47;4.53;;;;;;;6.03;79.17;100295.84;5052694;28;20704;-71
2021/10/22 03:19:27;;;;;;;11.73;4.60;;;;;;;6.04;79.35;100300.19;5053315;28;20232;-72
2021/10/22 03:21:55;;;;;;;9.53;3.90;;;;;;;6.04;78.88;100292.25;5053204;28;20205;-72
2021/10/22 03:24:21;;;;;;;13.07;4.43;;;;;;;6.05;79.02;100289.53;5058434;28;20239;-71
2021/10/22 03:26:48;;;;;;;7.90;3.27;;;;;;;6.05;79.27;100300.13;5066824;28;20204;-72
2021/10/22 03:29:15;;;;;;;9.00;4.20;;;;;;;6.05;79.29;100297.47;5066714;28;20740;-71
2021/10/22 03:31:42;;;;;;;9.50;4.53;;;;;;;6.05;79.38;100293.97;5060063;28;20201;-72
2021/10/22 03:34:08;;;;;;;12.23;4.73;;;;;;;6.04;79.35;100293.13;5057348;28;20210;-72
2021/10/22 03:36:36;;;;;;;13.73;5.10;;;;;;;6.05;79.11;100294.84;5056514;28;20230;-72
2021/10/22 03:39:05;;;;;;;10.87;5.17;;;;;;;6.05;79.02;100284.25;5053810;28;20233;-73
2021/10/22 03:41:32;;;;;;;11.00;4.10;;;;;;;6.06;78.91;100283.31;5058961;28;20211;-72
2021/10/22 03:43:59;;;;;;;11.17;4.17;;;;;;;6.08;79.30;100275.31;5071953;28;20211;-70
2021/10/22 03:46:25;;;;;;;7.40;3.23;;;;;;;6.08;78.96;100268.25;5058059;28;20588;-72
2021/10/22 03:48:52;;;;;;;11.93;4.00;;;;;;;6.09;78.95;100275.22;5068093;28;20229;-72
2021/10/22 03:51:18;;;;;;;8.97;3.20;;;;;;;6.09;78.52;100275.22;5053575;28;20212;-72
2021/10/22 03:53:45;;;;;;;6.50;3.00;;;;;;;6.11;78.79;100278.63;5054787;28;20216;-72
2021/10/22 03:56:13;;;;;;;10.03;2.90;;;;;;;6.11;78.73;100273.34;5064434;28;20697;-72
2021/10/22 03:58:40;;;;;;;12.13;3.17;;;;;;;6.11;78.36;100273.34;5063701;28;20259;-72
2021/10/22 04:01:06;;;;;;;9.63;3.20;;;;;;;6.11;78.24;100278.63;5056209;28;20212;-73
2021/10/22 04:03:33;;;;;;;9.70;3.17;;;;;;;6.10;78.31;100266.34;5061372;28;20206;-72
2021/10/22 04:05:59;;;;;;;9.87;3.83;;;;;;;6.09;78.21;100280.50;5063851;28;20205;-71
2021/10/22 04:08:26;;;;;;;12.83;4.43;;;;;;;6.10;78.61;100271.63;5057804;28;20200;-72
2021/10/22 04:10:52;;;;;;;14.63;4.37;;;;;;;6.07;78.35;100270.97;5071995;28;20217;-72
2021/10/22 04:13:20;;;;;;;11.37;3.80;;;;;;;6.07;78.36;100271.81;5053280;28;20714;-73
2021/10/22 04:15:48;;;;;;;7.17;3.57;;;;;;;6.10;78.09;100265.50;5055014;28;20348;-71
2021/10/22 04:18:15;;;;;;;6.60;3.50;;;;;;;6.10;78.28;100266.34;5063258;28;20627;-72
2021/10/22 04:20:42;;;;;;;7.07;3.63;;;;;;;6.11;78.30;100264.56;5052187;28;20327;-71
2021/10/22 04:23:09;;;;;;;7.50;3.30;;;;;;;6.10;78.46;100271.63;5050919;28;20296;-70
2021/10/22 04:25:37;;;;;;;8.07;3.57;;;;;;;6.10;78.10;100276.94;5057195;28;20324;-72
2021/10/22 04:28:06;;;;;;;10.10;3.47;;;;;;;6.14;77.99;100267.91;5061652;28;20193;-71
2021/10/22 04:30:34;;;;;;;10.27;3.50;;;;;;;6.15;77.80;100269.63;5064102;28;20221;-73
2021/10/22 04:33:00;;;;;;;6.90;3.03;;;;;;;6.16;77.78;100265.19;5060927;28;20205;-71
2021/10/22 04:35:27;;;;;;;11.10;4.03;;;;;;;6.15;77.97;100261.69;5059833;28;20684;-72
2021/10/22 04:40:30;;;;;;;6.93;2.80;;;;;;;6.15;78.30;100253.75;5059382;28;20209;-72
2021/10/22 04:41:03;;;;;;;6.17;2.83;;;;;;;6.16;77.77;100247.53;5059139;28;20248;-72
2021/10/22 04:43:29;;;;;;;11.60;3.27;;;;;;;6.15;77.80;100272.28;5050281;28;20658;-72
2021/10/22 04:45:57;;;;;;;8.13;3.73;;;;;;;6.16;77.98;100271.34;5061926;28;20207;-72
2021/10/22 04:48:24;;;;;;;11.13;3.50;;;;;;;6.16;77.99;100265.19;5056191;28;20619;-72
2021/10/22 04:50:51;;;;;;;9.23;3.00;;;;;;;6.16;78.05;100275.78;5059251;28;20200;-72
2021/10/22 04:53:22;;;;;;;8.27;2.83;;;;;;;6.15;77.86;100276.69;5058829;28;20213;-72
2021/10/22 04:55:49;;;;;;;7.00;2.80;;;;;;;6.16;77.64;100271.34;5051317;28;20229;-72
2021/10/22 04:58:15;;;;;;;9.83;2.73;;;;;;;6.16;77.49;100278.41;5061691;28;20668;-72
2021/10/22 05:00:42;;;;;;;6.97;3.20;;;;;;;6.13;77.86;100290.00;5056731;28;20786;-72
2021/10/22 05:03:10;;;;;;;9.57;3.60;;;;;;;6.15;77.63;100282.00;5050928;28;20209;-72
2021/10/22 05:05:36;;;;;;;11.13;2.37;;;;;;;6.16;77.61;100289.00;5058763;28;20483;-72
2021/10/22 05:08:03;;;;;;;7.67;2.20;;;;;;;6.17;77.65;100290.69;5055380;28;20709;-72
2021/10/22 05:10:30;;;;;;;6.23;2.40;;;;;;;6.17;77.49;100283.63;5058429;28;20224;-73
2021/10/22 05:12:57;;;;;;;6.77;1.80;;;;;;;6.19;77.58;100294.13;5052503;28;20694;-72
2021/10/22 05:15:25;;;;;;;6.57;2.63;;;;;;;6.21;77.35;100284.31;5051184;28;20348;-72
2021/10/22 05:17:51;;;;;;;11.33;2.47;;;;;;;6.24;77.17;100278.88;5050469;28;20680;-73
2021/10/22 05:20:19;;;;;;;6.60;1.87;;;;;;;6.21;76.89;100290.47;5052948;28;20225;-72
2021/10/22 05:22:46;;;;;;;9.77;1.80;;;;;;;6.24;77.33;100276.25;5055856;28;20236;-72
2021/10/22 05:25:13;;;;;;;4.97;2.20;;;;;;;6.25;76.76;100264.72;5052500;28;20252;-72
2021/10/22 05:27:40;;;;;;;6.07;2.00;;;;;;;6.26;76.59;100267.31;5052084;28;20209;-72
2021/10/22 05:30:08;;;;;;;8.77;1.87;;;;;;;6.27;77.02;100271.63;5059499;28;20225;-71
2021/10/22 05:32:35;;;;;;;6.53;1.40;;;;;;;6.26;76.26;100264.66;5050760;28;20212;-72
2021/10/22 05:35:02;;;;;;;11.47;1.53;;;;;;;6.27;76.29;100268.97;5052757;28;20216;-72
2021/10/22 05:37:30;;;;;;;5.83;1.53;;;;;;;6.32;76.13;100254.66;5067826;28;20193;-72
2021/10/22 05:39:57;;;;;;;9.17;1.67;;;;;;;6.34;76.30;100250.16;5055566;28;20233;-72
2021/10/22 05:42:23;;;;;;;9.23;1.90;;;;;;;6.36;76.11;100250.94;5056384;28;20229;-72
2021/10/22 05:44:50;;;;;;;5.40;1.40;;;;;;;6.37;76.08;100250.00;5051031;28;20229;-72
2021/10/22 05:47:17;;;;;;;8.07;1.47;;;;;;;6.38;75.97;100233.19;5050228;28;20669;-72
2021/10/22 05:49:43;;;;;;;7.90;1.70;;;;;;;6.39;75.82;100237.56;5055109;28;20759;-72
2021/10/22 05:52:10;;;;;;;7.50;1.50;;;;;;;6.39;75.31;100240.22;5053117;28;20200;-72
2021/10/22 05:54:38;;;;;;;11.67;2.20;;;;;;;6.40;75.30;100226.03;5066987;28;20197;-72
2021/10/22 05:57:05;;;;;;;5.93;1.60;;;;;;;6.41;75.33;100225.13;5061251;28;20232;-72
2021/10/22 05:59:32;;;;;;;6.73;1.50;;;;;;;6.42;75.75;100221.53;5053726;28;20591;-72
2021/10/22 06:01:58;;;;;;;8.40;2.00;;;;;;;6.43;75.03;100226.75;5064760;28;20665;-72
2021/10/22 06:04:25;;;;;;;7.13;1.70;;;;;;;6.43;75.01;100213.53;5064100;28;20201;-72
2021/10/22 06:06:51;;;;;;;6.53;1.33;;;;;;;6.45;75.11;100208.97;5064505;28;20205;-72
2021/10/22 06:09:18;;;;;;;7.13;1.77;;;;;;;6.45;74.88;100208.97;5054828;28;20221;-72
2021/10/22 06:11:49;;;;;;;8.60;1.60;;;;;;;6.45;74.79;100208.97;5057043;28;20198;-71
2021/10/22 06:14:15;;;;;;;8.47;1.53;;;;;;;6.45;74.59;100200.22;5071686;28;20697;-71
2021/10/22 06:16:42;;;;;;;6.23;1.60;;;;;;;6.45;74.38;100201.03;5057405;28;20717;-72
2021/10/22 06:19:14;;;;;;;6.03;1.40;;;;;;;6.44;73.67;100185.28;5060286;28;20245;-72
2021/10/22 06:21:53;;;;;;;6.67;1.40;;;;;;;6.48;74.55;100192.94;5057703;28;20201;-71
2021/10/22 06:24:19;;;;;;;4.43;1.40;;;;;;;6.53;74.00;100188.28;5057132;28;20204;-72
2021/10/22 06:26:47;;;;;;;9.50;1.67;;;;;;;6.54;73.44;100179.41;5054621;28;20209;-72
2021/10/22 06:29:14;;;;;;;4.80;1.20;;;;;;;6.55;73.37;100186.41;5066694;28;20312;-70
2021/10/22 06:31:41;;;;;;;7.87;1.23;;;;;;;6.59;73.28;100187.09;5054421;28;20585;-73
2021/10/22 06:34:09;;;;;;;6.00;1.50;;;;;;;6.63;73.61;100183.31;5055037;28;20259;-72
2021/10/22 06:36:36;;;;;;;5.00;1.30;;;;;;;6.67;73.02;100174.28;5052414;28;20229;-72
2021/10/22 06:39:04;;;;;;;8.33;1.93;;;;;;;6.71;72.98;100186.41;5096606;22;21199;-74
2021/10/22 06:41:30;;;;;;;5.00;1.70;;;;;;;6.78;72.74;100173.72;5078191;28;20222;-75
2021/10/22 06:43:59;;;;;;;6.63;1.47;;;;;;;6.82;72.66;100183.16;5082579;28;20201;-75
2021/10/22 06:46:25;;;;;;;5.00;1.37;;;;;;;6.84;72.05;100186.59;5067352;28;20209;-75
2021/10/22 06:48:54;;;;;;;4.10;1.20;;;;;;;6.88;72.64;100188.97;5070280;28;20212;-76
2021/10/22 06:51:21;;;;;;;7.67;1.57;;;;;;;6.92;72.00;100182.59;5072395;28;20707;-75
2021/10/22 06:53:47;;;;;;;7.50;1.40;;;;;;;6.94;71.58;100193.09;5071885;28;20552;-76
2021/10/22 06:56:14;;;;;;;6.13;1.93;;;;;;;6.98;71.78;100192.00;5068778;28;20240;-76
2021/10/22 06:58:41;;;;;;;7.10;1.60;;;;;;;7.03;71.54;100175.81;5071541;28;20587;-76
2021/10/22 07:01:09;;;;;;;9.40;1.40;;;;;;;7.05;71.24;100188.03;5071711;28;20208;-75
2021/10/22 07:03:40;;;;;;;2.83;0.67;;;;;;;7.12;71.75;100184.13;5072656;28;20206;-76
2021/10/22 07:08:55;;;;;;;5.53;0.83;;;;;;;7.19;71.35;100201.34;5045379;28;20208;-74
2021/10/22 07:11:23;;;;;;;4.53;1.30;;;;;;;7.28;70.94;100197.34;5075682;28;20204;-76
2021/10/22 07:13:52;;;;;;;9.77;1.80;;;;;;;7.34;71.26;100204.09;5073726;28;20201;-75
2021/10/22 07:16:22;;;;;;;4.90;1.27;;;;;;;7.39;71.26;100199.38;5076201;28;20243;-75
2021/10/22 07:18:49;;;;;;;5.57;1.90;;;;;;;7.44;70.59;100200.81;5063160;28;20201;-76
2021/10/22 07:21:17;;;;;;;6.83;1.60;;;;;;;7.47;71.02;100218.34;5070847;28;20719;-76
2021/10/22 07:23:46;;;;;;;9.70;2.20;;;;;;;7.54;70.89;100196.69;5068032;28;20204;-76
2021/10/22 07:26:13;;;;;;;5.73;1.40;;;;;;;7.57;70.44;100209.75;5068122;28;20193;-76
2021/10/22 07:28:40;;;;;;;8.43;1.73;;;;;;;7.60;70.77;100209.59;5068121;28;20220;-76
2021/10/22 07:31:10;;;;;;;5.33;1.50;;;;;;;7.65;70.39;100193.44;5065280;28;20201;-76
2021/10/22 07:33:39;;;;;;;6.10;2.03;;;;;;;7.66;70.19;100219.84;5062668;28;20324;-76
2021/10/22 07:36:06;;;;;;;9.40;1.67;;;;;;;7.70;70.55;100211.72;5073741;28;20232;-77
2021/10/22 07:38:33;;;;;;;6.13;1.43;;;;;;;7.71;69.91;100208.09;5070388;28;20261;-76
2021/10/22 07:41:00;;;;;;;6.03;1.30;;;;;;;7.74;70.15;100214.06;5067013;28;20814;-76
2021/10/22 07:43:26;;;;;;;7.03;1.73;;;;;;;7.78;70.32;100204.16;5063637;28;20240;-76
2021/10/22 07:45:53;;;;;;;6.17;1.30;;;;;;;7.83;70.30;100210.03;5069680;28;20205;-74
2021/10/22 07:48:20;;;;;;;6.77;1.50;;;;;;;7.88;69.51;100210.63;5065139;28;20200;-76
2021/10/22 07:50:48;;;;;;;5.33;1.67;;;;;;;7.91;69.42;100229.00;5071705;28;20224;-77
2021/10/22 07:53:14;;;;;;;6.03;1.67;;;;;;;7.86;69.32;100197.47;5074642;28;20216;-76
2021/10/22 07:55:43;;;;;;;7.70;1.97;;;;;;;7.87;69.13;100220.38;5064197;28;20193;-76
2021/10/22 07:58:09;;;;;;;5.67;1.53;;;;;;;7.94;68.95;100215.56;5067576;28;20293;-74
2021/10/22 08:00:36;;;;;;;4.23;1.30;;;;;;;7.96;69.39;100211.03;5068112;28;20235;-76
2021/10/22 08:03:03;;;;;;;6.67;1.30;;;;;;;7.93;69.86;100213.84;5063973;28;20227;-76
2021/10/22 08:05:30;;;;;;;6.17;1.70;;;;;;;7.98;69.67;100198.53;5070506;28;20201;-77
2021/10/22 08:07:58;;;;;;;6.70;1.90;;;;;;;8.00;69.72;100204.59;5065875;28;20222;-77
2021/10/22 08:10:24;;;;;;;6.17;1.47;;;;;;;8.08;69.36;100204.13;5068118;28;20225;-76
2021/10/22 08:12:52;;;;;;;6.33;1.60;;;;;;;8.14;69.41;100204.63;5067588;28;20205;-75
2021/10/22 08:15:18;;;;;;;3.77;1.20;;;;;;;8.20;69.45;100214.88;5065118;28;20380;-76
2021/10/22 08:17:45;;;;;;;8.00;1.60;;;;;;;8.19;68.66;100205.19;5067613;28;20730;-76
2021/10/22 08:20:17;;;;;;;6.00;1.73;;;;;;;8.22;69.08;100194.41;5061750;28;20224;-75
2021/10/22 08:22:43;;;;;;;6.57;1.63;;;;;;;8.21;68.68;100197.16;5069216;28;20672;-75
2021/10/22 08:25:13;;;;;;;6.17;1.77;;;;;;;8.24;68.79;100203.09;5066989;28;20212;-75
2021/10/22 08:27:42;;;;;;;8.57;1.60;;;;;;;8.26;68.59;100187.94;5065473;28;20546;-75
2021/10/22 08:30:10;;;;;;;4.33;1.70;;;;;;;8.28;68.57;100187.84;5066802;28;20256;-76
2021/10/22 08:32:38;;;;;;;6.73;1.90;;;;;;;8.30;69.29;100205.38;5067250;28;20658;-77
2021/10/22 08:35:06;;;;;;;6.37;1.87;;;;;;;8.39;68.98;100196.06;5066869;28;20205;-77
2021/10/22 08:37:34;;;;;;;8.20;1.80;;;;;;;8.49;68.45;100194.53;5070853;28;20228;-77
2021/10/22 08:40:00;;;;;;;7.40;1.90;;;;;;;8.55;68.53;100188.84;5068180;28;20241;-76
2021/10/22 08:42:28;;;;;;;6.93;1.83;;;;;;;8.62;68.42;100192.81;5065899;28;20201;-77
2021/10/22 08:44:55;;;;;;;6.17;1.77;;;;;;;8.67;67.97;100196.03;5061380;28;20208;-77
2021/10/22 08:47:22;;;;;;;7.53;2.37;;;;;;;8.68;67.24;100194.25;5073064;28;20223;-79
2021/10/22 08:49:50;;;;;;;5.17;1.73;;;;;;;8.70;67.80;100179.06;5066800;28;20221;-76
2021/10/22 08:52:16;;;;;;;4.90;1.80;;;;;;;8.74;68.02;100177.09;5066093;28;20205;-78
2021/10/22 08:54:43;;;;;;;6.30;1.73;;;;;;;8.79;67.39;100181.13;5068347;28;20213;-74
2021/10/22 08:57:10;;;;;;;7.90;2.60;;;;;;;8.83;67.46;100169.38;5065410;28;20221;-77
2021/10/22 08:59:38;;;;;;;7.47;2.07;;;;;;;8.91;67.89;100187.47;5061177;28;20253;-77
2021/10/22 09:02:21;;;;;;;6.77;1.83;;;;;;;8.92;67.27;100174.09;5064733;28;20306;-77
2021/10/22 09:04:48;;;;;;;7.90;1.80;;;;;;;9.01;67.16;100172.66;5068224;28;20283;-77
2021/10/22 09:07:17;;;;;;;7.30;1.77;;;;;;;9.05;67.50;100177.69;5074540;28;20201;-76
2021/10/22 09:09:44;;;;;;;8.37;2.00;;;;;;;9.11;67.02;100164.97;5065281;28;20235;-77
2021/10/22 09:12:11;;;;;;;4.67;1.63;;;;;;;9.20;67.34;100185.59;5059273;28;20287;-77
2021/10/22 09:14:41;;;;;;;5.90;2.00;;;;;;;9.22;67.22;100196.97;5069615;28;20584;-76
2021/10/22 09:17:12;;;;;;;8.37;1.60;;;;;;;9.25;66.04;100172.88;5063769;28;20232;-77
2021/10/22 09:19:42;;;;;;;4.50;2.00;;;;;;;9.31;65.56;100164.50;5061403;28;20270;-77
2021/10/22 09:22:23;;;;;;;6.27;1.63;;;;;;;9.31;65.54;100165.38;5064293;28;20203;-77
2021/10/22 09:24:52;;;;;;;4.63;1.77;;;;;;;9.40;66.05;100172.72;5065317;28;20207;-77
2021/10/22 09:27:34;;;;;;;6.83;1.97;;;;;;;9.46;65.93;100168.81;5069981;28;20670;-77
2021/10/22 09:30:05;;;;;;;4.60;1.67;;;;;;;9.46;65.05;100171.47;5074405;28;20729;-77
2021/10/22 09:32:32;;;;;;;3.70;2.13;;;;;;;9.54;65.65;100177.09;5066960;28;20201;-77
2021/10/22 09:34:59;;;;;;;9.37;2.37;;;;;;;9.60;65.44;100163.41;5068502;28;20201;-77
2021/10/22 09:37:37;;;;;;;4.90;1.67;;;;;;;9.67;64.91;100171.84;5063072;28;20227;-77
2021/10/22 09:40:05;;;;;;;8.97;1.80;;;;;;;9.70;65.07;100192.88;5066503;28;20725;-77
2021/10/22 09:42:32;;;;;;;5.77;1.80;;;;;;;9.68;65.14;100189.47;5068141;28;20209;-77
2021/10/22 09:44:59;;;;;;;6.07;1.77;;;;;;;9.71;65.10;100174.16;5063818;28;20260;-77
2021/10/22 09:47:27;;;;;;;5.33;2.00;;;;;;;9.78;64.76;100173.78;5056891;28;20296;-77
2021/10/22 09:50:06;;;;;;;5.27;1.70;;;;;;;9.75;64.47;100177.47;5071087;28;20604;-78
2021/10/22 09:52:32;;;;;;;5.53;1.80;;;;;;;9.80;64.83;100175.38;5070557;28;20612;-78
2021/10/22 09:55:09;;;;;;;6.37;1.40;;;;;;;9.92;65.30;100173.69;5058141;28;20202;-78
2021/10/22 09:57:36;;;;;;;2.73;1.40;;;;;;;9.96;65.16;100178.69;5063751;28;20597;-77
2021/10/22 10:00:09;;;;;;;4.53;1.50;;;;;;;10.00;64.78;100192.66;5070555;28;20228;-75
2021/10/22 10:02:38;;;;;;;3.97;1.53;;;;;;;10.03;64.09;100185.28;5076012;28;20288;-77
2021/10/22 10:05:07;;;;;;;19.63;3.00;;;;;;;10.02;63.45;100174.78;5064246;28;20207;-77
2021/10/22 10:07:36;;;;;;;5.90;1.57;;;;;;;10.03;63.56;100189.78;5070685;28;20283;-77
2021/10/22 10:10:03;;;;;;;6.10;1.57;;;;;;;10.03;64.04;100184.47;5070334;28;20221;-73
2021/10/22 10:12:31;;;;;;;4.03;1.40;;;;;;;10.02;63.93;100188.06;5070614;28;20700;-75
2021/10/22 10:14:57;;;;;;;4.70;1.77;;;;;;;10.02;63.39;100190.72;5070713;28;20213;-77
2021/10/22 10:17:24;;;;;;;5.67;1.80;;;;;;;10.04;63.64;100180.81;5069816;28;20225;-76
2021/10/22 10:19:54;;;;;;;7.27;1.90;;;;;;;10.06;63.71;100168.25;5070609;28;20725;-77
2021/10/22 10:22:27;;;;;;;4.83;1.80;;;;;;;10.08;63.93;100177.84;5070635;28;20220;-76
2021/10/22 10:24:59;;;;;;;6.47;1.73;;;;;;;10.09;63.46;100170.72;5071099;28;20215;-76
2021/10/22 10:27:26;;;;;;;7.73;2.30;;;;;;;10.08;63.90;100182.31;5069990;28;20306;-75
2021/10/22 10:29:55;;;;;;;5.93;1.80;;;;;;;10.15;63.67;100188.06;5070519;28;20225;-75
2021/10/22 10:32:24;;;;;;;5.47;1.90;;;;;;;10.15;63.84;100204.91;5068771;28;20292;-76
2021/10/22 10:34:53;;;;;;;9.37;2.00;;;;;;;10.22;64.10;100190.22;5070549;28;20215;-73
2021/10/22 10:37:25;;;;;;;4.37;1.70;;;;;;;10.22;63.74;100189.38;5057924;28;20275;-76
2021/10/22 10:40:12;;;;;;;8.20;2.20;;;;;;;10.22;63.22;100184.91;5062777;28;20241;-76
2021/10/22 10:42:42;;;;;;;6.33;2.10;;;;;;;10.22;63.79;100174.25;5061017;28;20205;-75
2021/10/22 10:45:18;;;;;;;4.63;2.00;;;;;;;10.22;63.54;100190.22;5071585;28;20205;-77
2021/10/22 10:47:49;;;;;;;6.10;1.80;;;;;;;10.24;63.60;100175.00;5076921;28;20208;-76
2021/10/22 10:50:20;;;;;;;5.30;2.30;;;;;;;10.20;62.80;100183.34;5063768;28;20232;-76
2021/10/22 10:52:50;;;;;;;6.17;1.77;;;;;;;10.23;62.85;100170.63;5076963;28;20587;-76
2021/10/22 10:55:23;;;;;;;8.57;2.10;;;;;;;10.25;63.55;100190.00;5067392;28;20212;-76
2021/10/22 10:57:52;;;;;;;5.00;2.40;;;;;;;10.32;63.47;100169.16;5070675;28;20205;-76
2021/10/22 11:00:21;;;;;;;6.47;2.10;;;;;;;10.38;63.01;100176.72;5065004;28;20228;-75
2021/10/22 11:03:22;;;;;;;4.07;1.83;;;;;;;10.44;63.05;100165.63;5067016;28;20225;-76
2021/10/22 11:06:13;;;;;;;5.43;1.97;;;;;;;10.48;63.29;100169.78;4985942;28;20207;-77
2021/10/22 11:08:50;;;;;;;4.40;2.10;;;;;;;10.47;62.76;100152.09;4990299;28;20286;-76
2021/10/22 11:11:38;;;;;;;4.83;2.00;;;;;;;10.49;62.66;100152.84;5037192;28;20231;-76
2021/10/22 11:14:15;;;;;;;8.43;2.10;;;;;;;10.48;62.64;100198.22;5066359;28;20235;-76
2021/10/22 11:16:51;;;;;;;6.97;1.70;;;;;;;10.51;62.48;100156.25;5070152;28;20212;-76
2021/10/22 11:19:22;;;;;;;4.47;1.70;;;;;;;10.52;62.44;100157.13;5073454;28;20219;-76
2021/10/22 11:21:52;;;;;;;5.87;1.40;;;;;;;10.52;62.16;100157.13;5064989;28;20616;-76
2021/10/22 11:24:20;;;;;;;4.93;1.50;;;;;;;10.48;62.21;100166.28;5070662;28;20201;-76
2021/10/22 11:26:54;;;;;;;4.97;2.10;;;;;;;10.48;62.39;100155.63;5070108;28;20197;-75
2021/10/22 11:29:23;;;;;;;4.73;1.90;;;;;;;10.49;62.21;100175.97;5071433;28;20224;-76
2021/10/22 11:31:52;;;;;;;6.13;1.90;;;;;;;10.50;62.43;100167.03;5068218;28;20612;-76
2021/10/22 11:34:21;;;;;;;5.20;1.33;;;;;;;10.47;62.62;100176.06;5066592;28;20258;-76
2021/10/22 11:36:52;;;;;;;4.27;1.83;;;;;;;10.44;62.74;100162.97;5066279;28;20597;-76
2021/10/22 11:39:21;;;;;;;6.43;1.70;;;;;;;10.45;63.21;100191.28;5068599;28;20286;-76